createdAt,value
2023-05-12T00:01:32.764Z,100775.03
2023-05-12T00:04:03.500Z,100769.75
2023-05-12T00:06:34.123Z,100772.38
2023-05-12T00:09:04.647Z,100769.75
2023-05-12T00:11:53.310Z,100775.88
2023-05-12T00:14:24.314Z,100768.00
2023-05-12T00:16:54.970Z,100765.25
2023-05-12T00:19:25.813Z,100762.63
2023-05-12T00:21:56.353Z,100764.41
2023-05-12T00:24:27.430Z,100767.88
2023-05-12T00:26:58.114Z,100764.41
2023-05-12T00:29:28.619Z,100764.28
2023-05-12T00:31:59.320Z,100768.50
2023-05-12T00:34:32.980Z,100770.16
2023-05-12T00:37:03.443Z,100770.03
2023-05-12T00:39:34.230Z,100774.34
2023-05-12T00:42:04.994Z,100766.38
2023-05-12T00:44:35.934Z,100760.16
2023-05-12T00:47:07.501Z,100764.44
2023-05-12T00:49:38.629Z,100775.72
2023-05-12T00:52:09.307Z,100767.81
2023-05-12T00:54:42.070Z,100774.00
2023-05-12T00:57:13.736Z,100767.69
2023-05-12T01:00:02.182Z,100770.22
2023-05-12T01:02:33.853Z,100776.31
2023-05-12T01:05:22.872Z,100777.88
2023-05-12T01:07:54.042Z,100767.22
2023-05-12T01:10:24.899Z,100776.91
2023-05-12T01:12:55.480Z,100781.22
2023-05-12T01:15:26.304Z,100782.88
2023-05-12T01:18:03.403Z,100780.16
2023-05-12T01:20:35.462Z,100782.81
2023-05-12T01:23:07.525Z,100783.50
2023-05-12T01:25:41.121Z,100778.16
2023-05-12T01:28:12.383Z,100777.28
2023-05-12T01:30:44.230Z,100780.78
2023-05-12T01:33:16.381Z,100773.72
2023-05-12T01:35:47.228Z,100780.66
2023-05-12T01:38:36.116Z,100785.81
2023-05-12T01:41:07.013Z,100791.06
2023-05-12T01:43:37.800Z,100791.81
2023-05-12T01:46:08.733Z,100790.84
2023-05-12T01:48:39.460Z,100786.53
2023-05-12T01:51:11.273Z,100782.94
2023-05-12T01:53:41.838Z,100777.69
2023-05-12T01:56:13.013Z,100783.78
2023-05-12T01:59:01.513Z,100784.63
2023-05-12T02:01:33.851Z,100779.38
2023-05-12T02:04:05.555Z,100772.31
2023-05-12T02:06:36.255Z,100766.91
2023-05-12T02:09:07.157Z,100768.63
2023-05-12T02:11:38.279Z,100761.66
2023-05-12T02:14:09.138Z,100765.16
2023-05-12T02:16:40.262Z,100755.56
2023-05-12T02:19:11.235Z,100757.25
2023-05-12T02:21:41.820Z,100751.03
2023-05-12T02:24:14.676Z,100756.19
2023-05-12T02:26:47.352Z,100749.13
2023-05-12T02:29:18.093Z,100739.44
2023-05-12T02:31:49.195Z,100740.28
2023-05-12T02:34:20.726Z,100741.00
2023-05-12T02:36:51.360Z,100741.72
2023-05-12T02:39:22.168Z,100740.75
2023-05-12T02:41:52.720Z,100738.25
2023-05-12T02:44:23.969Z,100744.25
2023-05-12T02:46:54.497Z,100745.94
2023-05-12T02:49:25.126Z,100734.44
2023-05-12T02:51:56.768Z,100730.00
2023-05-12T02:54:27.317Z,100727.38
2023-05-12T02:56:59.713Z,100724.75
2023-05-12T02:59:32.041Z,100729.06
2023-05-12T03:02:02.878Z,100730.63
2023-05-12T03:04:34.675Z,100714.72
2023-05-12T03:07:06.415Z,100713.88
2023-05-12T03:09:37.328Z,100700.00
2023-05-12T03:12:08.142Z,100699.88
2023-05-12T03:14:38.596Z,100690.19
2023-05-12T03:17:10.130Z,100695.31
2023-05-12T03:19:40.759Z,100690.06
2023-05-12T03:22:11.596Z,100686.50
2023-05-12T03:24:42.278Z,100681.94
2023-05-12T03:27:13.059Z,100679.31
2023-05-12T03:29:43.852Z,100683.75
2023-05-12T03:32:15.131Z,100675.72
2023-05-12T03:34:46.033Z,100666.03
2023-05-12T03:37:17.783Z,100656.34
2023-05-12T03:39:48.273Z,100652.88
2023-05-12T03:42:19.160Z,100658.91
2023-05-12T03:44:50.183Z,100653.50
2023-05-12T03:47:21.210Z,100646.34
2023-05-12T03:49:51.755Z,100639.38
2023-05-12T03:52:22.944Z,100629.69
2023-05-12T03:54:53.493Z,100633.19
2023-05-12T03:57:24.096Z,100627.66
2023-05-12T03:59:54.770Z,100626.72
2023-05-12T04:02:25.254Z,100623.13
2023-05-12T04:04:56.333Z,100614.38
2023-05-12T04:07:26.850Z,100604.72
2023-05-12T04:09:57.718Z,100595.84
2023-05-12T04:12:28.229Z,100599.31
2023-05-12T04:14:59.142Z,100595.72
2023-05-12T04:17:29.805Z,100587.69
2023-05-12T04:20:00.524Z,100578.97
2023-05-12T04:22:32.038Z,100572.78
2023-05-12T04:25:02.494Z,100577.06
2023-05-12T04:27:33.206Z,100584.00
2023-05-12T04:30:04.015Z,100568.22
2023-05-12T04:32:38.416Z,100572.50
2023-05-12T04:35:10.152Z,100564.59
2023-05-12T04:37:41.430Z,100555.75
2023-05-12T04:40:12.505Z,100554.81
2023-05-12T04:42:44.832Z,100550.25
2023-05-12T04:45:17.276Z,100558.84
2023-05-12T04:47:48.080Z,100547.25
2023-05-12T04:50:18.736Z,100543.41
2023-05-12T04:52:49.231Z,100538.16
2023-05-12T04:55:20.370Z,100537.88
2023-05-12T04:57:51.145Z,100530.84
2023-05-12T05:00:22.591Z,100528.06
2023-05-12T05:02:53.309Z,100522.66
2023-05-12T05:05:23.968Z,100523.41
2023-05-12T05:07:54.560Z,100520.78
2023-05-12T05:10:27.278Z,100521.34
2023-05-12T05:12:58.453Z,100512.50
2023-05-12T05:15:30.200Z,100506.00
2023-05-12T05:18:02.165Z,100503.34
2023-05-12T05:20:34.438Z,100496.19
2023-05-12T05:23:05.323Z,100497.72
2023-05-12T05:25:35.913Z,100489.56
2023-05-12T05:28:07.168Z,100493.19
2023-05-12T05:30:38.818Z,100489.56
2023-05-12T05:33:10.452Z,100483.34
2023-05-12T05:35:41.213Z,100476.84
2023-05-12T05:38:13.622Z,100473.25
2023-05-12T05:40:52.779Z,100470.50
2023-05-12T05:43:25.847Z,100461.63
2023-05-12T05:45:58.789Z,100468.44
2023-05-12T05:48:29.862Z,100460.66
2023-05-12T05:51:00.396Z,100459.69
2023-05-12T05:53:31.149Z,100458.75
2023-05-12T05:56:03.040Z,100455.00
2023-05-12T05:58:34.580Z,100453.34
2023-05-12T06:01:07.187Z,100454.31
2023-05-12T06:03:38.515Z,100441.84
2023-05-12T06:06:09.598Z,100445.31
2023-05-12T06:08:40.299Z,100430.47
2023-05-12T06:11:10.849Z,100427.00
2023-05-12T06:13:41.631Z,100427.00
2023-05-12T06:16:12.188Z,100427.00
2023-05-12T06:18:42.705Z,100414.81
2023-05-12T06:21:13.235Z,100420.91
2023-05-12T06:23:43.676Z,100419.09
2023-05-12T06:26:16.239Z,100412.19
2023-05-12T06:28:46.677Z,100399.84
2023-05-12T06:31:17.209Z,100400.81
2023-05-12T06:33:50.169Z,100401.63
2023-05-12T06:36:20.718Z,100394.56
2023-05-12T06:38:52.546Z,100395.41
2023-05-12T06:41:23.596Z,100403.31
2023-05-12T06:43:54.523Z,100398.03
2023-05-12T06:46:30.832Z,100400.66
2023-05-12T06:49:02.977Z,100397.06
2023-05-12T06:51:33.467Z,100399.69
2023-05-12T06:54:04.302Z,100394.44
2023-05-12T06:56:34.934Z,100398.72
2023-05-12T06:59:06.280Z,100397.91
2023-05-12T07:01:36.878Z,100399.69
2023-05-12T07:04:07.772Z,100396.09
2023-05-12T07:06:38.616Z,100396.91
2023-05-12T07:09:09.123Z,100395.13
2023-05-12T07:11:39.676Z,100391.66
2023-05-12T07:14:10.112Z,100393.34
2023-05-12T07:16:40.617Z,100395.00
2023-05-12T07:19:11.287Z,100391.53
2023-05-12T07:21:42.047Z,100395.00
2023-05-12T07:24:12.895Z,100387.94
2023-05-12T07:26:43.451Z,100383.50
2023-05-12T07:29:14.237Z,100383.50
2023-05-12T07:31:44.890Z,100381.69
2023-05-12T07:34:16.588Z,100381.69
2023-05-12T07:36:46.995Z,100371.16
2023-05-12T07:39:20.903Z,100371.16
2023-05-12T07:41:52.666Z,100373.66
2023-05-12T07:44:23.401Z,100366.72
2023-05-12T07:46:53.864Z,100370.19
2023-05-12T07:49:24.837Z,100362.28
2023-05-12T07:51:55.364Z,100361.34
2023-05-12T07:54:25.814Z,100363.97
2023-05-12T07:56:56.273Z,100358.72
2023-05-12T07:59:26.995Z,100356.06
2023-05-12T08:01:57.595Z,100346.38
2023-05-12T08:04:28.374Z,100355.09
2023-05-12T08:06:58.901Z,100344.56
2023-05-12T08:09:29.645Z,100344.56
2023-05-12T08:12:00.161Z,100349.69
2023-05-12T08:14:30.621Z,100346.22
2023-05-12T08:17:01.232Z,100342.75
2023-05-12T08:19:31.952Z,100347.06
2023-05-12T08:22:03.173Z,100344.56
2023-05-12T08:24:33.622Z,100346.09
2023-05-12T08:27:04.002Z,100340.81
2023-05-12T08:29:34.409Z,100344.41
2023-05-12T08:32:05.428Z,100341.78
2023-05-12T08:34:35.861Z,100347.06
2023-05-12T08:37:06.726Z,100350.53
2023-05-12T08:39:37.401Z,100353.16
2023-05-12T08:42:27.195Z,100349.53
2023-05-12T08:44:58.538Z,100346.09
2023-05-12T08:47:31.239Z,100354.81
2023-05-12T08:50:05.015Z,100350.38
2023-05-12T08:52:37.014Z,100357.44
2023-05-12T08:55:08.489Z,100348.72
2023-05-12T08:57:39.869Z,100345.25
2023-05-12T09:00:11.452Z,100348.72
2023-05-12T09:02:54.046Z,100347.63
2023-05-12T09:05:26.122Z,100341.66
2023-05-12T09:07:57.658Z,100341.66
2023-05-12T09:13:48.707Z,100341.66
2023-05-12T09:16:29.340Z,100343.44
2023-05-12T09:19:01.742Z,100347.75
2023-05-12T09:21:32.862Z,100350.38
2023-05-12T09:24:09.304Z,100343.34
2023-05-12T09:26:54.404Z,100342.47
2023-05-12T09:29:31.637Z,100344.28
2023-05-12T09:32:05.938Z,100341.66
2023-05-12T09:34:40.058Z,100345.97
2023-05-12T09:37:11.552Z,100347.63
2023-05-12T09:39:43.061Z,100350.28
2023-05-12T09:42:17.467Z,100350.13
2023-05-12T09:44:48.780Z,100350.28
2023-05-12T09:47:39.302Z,100347.63
2023-05-12T09:50:11.689Z,100356.38
2023-05-12T09:52:42.574Z,100351.09
2023-05-12T09:55:14.779Z,100351.09
2023-05-12T09:57:46.864Z,100346.66
2023-05-12T10:00:33.124Z,100351.09
2023-05-12T10:03:19.025Z,100349.28
2023-05-12T10:05:55.857Z,100353.63
2023-05-12T10:08:56.231Z,100352.91
2023-05-12T10:11:27.355Z,100353.72
2023-05-12T10:13:58.954Z,100359.16
2023-05-12T10:16:31.274Z,100366.91
2023-05-12T10:19:02.526Z,100365.09
2023-05-12T10:21:33.617Z,100366.06
2023-05-12T10:24:06.127Z,100373.84
2023-05-12T10:26:37.303Z,100372.06
2023-05-12T10:29:08.557Z,100373.97
2023-05-12T10:31:40.260Z,100380.91
2023-05-12T10:34:18.105Z,100380.09
2023-05-12T10:36:53.748Z,100379.25
2023-05-12T10:39:31.404Z,100379.34
2023-05-12T10:42:09.998Z,100380.22
2023-05-12T10:44:58.114Z,100382.72
2023-05-12T10:47:38.414Z,100384.63
2023-05-12T10:50:09.568Z,100387.16
2023-05-12T10:52:40.005Z,100390.63
2023-05-12T10:55:16.013Z,100391.44
2023-05-12T10:57:53.528Z,100398.66
2023-05-12T11:00:30.448Z,100410.72
2023-05-12T11:03:09.881Z,100411.69
2023-05-12T11:05:42.284Z,100414.34
2023-05-12T11:08:14.291Z,100414.47
2023-05-12T11:10:45.029Z,100421.41
2023-05-12T11:13:15.489Z,100424.16
2023-05-12T11:15:49.645Z,100434.69
2023-05-12T11:18:24.725Z,100425.97
2023-05-12T11:20:55.216Z,100434.69
2023-05-12T11:23:33.087Z,100433.84
2023-05-12T11:26:22.514Z,100446.09
2023-05-12T11:28:53.096Z,100446.19
2023-05-12T11:31:25.205Z,100433.03
2023-05-12T11:34:13.804Z,100442.72
2023-05-12T11:36:46.012Z,100446.34
2023-05-12T11:39:19.488Z,100452.59
2023-05-12T11:41:56.667Z,100463.13
2023-05-12T11:44:33.294Z,100459.50
2023-05-12T11:47:18.018Z,100460.34
2023-05-12T11:49:58.021Z,100461.31
2023-05-12T11:52:30.133Z,100460.34
2023-05-12T11:55:02.556Z,100456.88
2023-05-12T11:57:35.365Z,100473.53
2023-05-12T12:00:11.207Z,100478.78
2023-05-12T12:02:44.806Z,100479.75
2023-05-12T12:05:23.010Z,100478.94
2023-05-12T12:07:53.715Z,100486.84
2023-05-12T12:10:24.138Z,100481.56
2023-05-12T12:12:54.550Z,100492.09
2023-05-12T12:15:25.038Z,100498.34
2023-05-12T12:17:55.446Z,100501.81
2023-05-12T12:20:26.696Z,100495.72
2023-05-12T12:22:57.479Z,100509.72
2023-05-12T12:25:27.964Z,100515.91
2023-05-12T12:27:58.907Z,100515.91
2023-05-12T12:30:29.773Z,100519.53
2023-05-12T12:33:00.284Z,100533.53
2023-05-12T12:35:30.800Z,100539.63
2023-05-12T12:38:01.996Z,100541.44
2023-05-12T12:40:33.395Z,100553.78
2023-05-12T12:43:03.907Z,100542.41
2023-05-12T12:45:34.453Z,100549.47
2023-05-12T12:48:04.960Z,100552.94
2023-05-12T12:50:37.003Z,100552.94
2023-05-12T12:53:07.873Z,100553.91
2023-05-12T12:55:39.137Z,100553.06
2023-05-12T12:58:09.800Z,100562.66
2023-05-12T13:00:40.431Z,100570.69
2023-05-12T13:03:11.046Z,100573.31
2023-05-12T13:05:41.594Z,100575.97
2023-05-12T13:08:12.040Z,100583.84
2023-05-12T13:10:43.502Z,100583.03
2023-05-12T13:13:13.981Z,100578.69
2023-05-12T13:15:44.453Z,100579.53
2023-05-12T13:18:15.073Z,100583.97
2023-05-12T13:20:45.903Z,100589.38
2023-05-12T13:23:16.476Z,100594.63
2023-05-12T13:25:47.912Z,100601.72
2023-05-12T13:28:21.084Z,100607.81
2023-05-12T13:30:50.926Z,100608.78
2023-05-12T13:33:21.543Z,100613.22
2023-05-12T13:35:51.973Z,100620.28
2023-05-12T13:38:22.450Z,100607.09
2023-05-12T13:40:52.931Z,100608.03
2023-05-12T13:43:23.828Z,100611.53
2023-05-12T13:45:54.301Z,100610.69
2023-05-12T13:48:24.832Z,100613.31
2023-05-12T13:50:55.326Z,100609.84
2023-05-12T13:53:25.809Z,100602.91
2023-05-12T13:55:56.246Z,100607.34
2023-05-12T13:58:26.724Z,100603.75
2023-05-12T14:00:59.342Z,100603.75
2023-05-12T14:03:29.858Z,100609.97
2023-05-12T14:06:00.258Z,100616.09
2023-05-12T14:08:30.827Z,100616.22
2023-05-12T14:11:01.506Z,100613.59
2023-05-12T14:13:32.522Z,100615.38
2023-05-12T14:16:03.067Z,100611.91
2023-05-12T14:18:33.954Z,100617.19
2023-05-12T14:21:04.503Z,100619.91
2023-05-12T14:23:35.031Z,100616.44
2023-05-12T14:26:06.015Z,100616.44
2023-05-12T14:28:36.528Z,100619.91
2023-05-12T14:31:07.659Z,100624.50
2023-05-12T14:33:38.701Z,100616.59
2023-05-12T14:36:09.879Z,100613.13
2023-05-12T14:38:40.429Z,100618.38
2023-05-12T14:41:11.188Z,100621.97
2023-05-12T14:43:41.776Z,100611.41
2023-05-12T14:46:12.657Z,100611.41
2023-05-12T14:48:43.254Z,100618.50
2023-05-12T14:51:13.669Z,100615.03
2023-05-12T14:53:44.003Z,100614.19
2023-05-12T14:56:14.459Z,100608.09
2023-05-12T14:58:44.886Z,100601.16
2023-05-12T15:01:15.578Z,100602.81
2023-05-12T15:03:48.116Z,100600.31
2023-05-12T15:06:18.579Z,100598.66
2023-05-12T15:08:49.168Z,100605.69
2023-05-12T15:11:19.943Z,100603.06
2023-05-12T15:13:50.446Z,100608.31
2023-05-12T15:16:20.888Z,100612.75
2023-05-12T15:18:51.751Z,100601.41
2023-05-12T15:21:22.277Z,100608.59
2023-05-12T15:23:52.876Z,100606.94
2023-05-12T15:26:32.630Z,100595.44
2023-05-12T15:29:04.724Z,100596.41
2023-05-12T15:31:35.280Z,100592.91
2023-05-12T15:34:06.012Z,100597.31
2023-05-12T15:36:36.422Z,100603.44
2023-05-12T15:39:06.866Z,100602.59
2023-05-12T15:41:37.298Z,100600.09
2023-05-12T15:44:07.877Z,100598.28
2023-05-12T15:46:38.668Z,100583.47
2023-05-12T15:49:09.181Z,100572.09
2023-05-12T15:51:39.738Z,100581.78
2023-05-12T15:54:10.124Z,100574.88
2023-05-12T15:56:40.953Z,100571.38
2023-05-12T15:59:12.926Z,100574.00
2023-05-12T16:01:43.383Z,100569.69
2023-05-12T16:04:14.636Z,100568.03
2023-05-12T16:07:03.081Z,100567.19
2023-05-12T16:09:33.576Z,100563.72
2023-05-12T16:12:04.125Z,100551.41
2023-05-12T16:14:34.534Z,100557.63
2023-05-12T16:17:07.872Z,100549.72
2023-05-12T16:19:38.528Z,100550.66
2023-05-12T16:22:08.970Z,100550.66
2023-05-12T16:24:39.377Z,100549.84
2023-05-12T16:27:10.209Z,100538.47
2023-05-12T16:29:40.595Z,100537.63
2023-05-12T16:32:11.170Z,100528.06
2023-05-12T16:34:42.037Z,100530.72
2023-05-12T16:37:12.539Z,100527.25
2023-05-12T16:39:43.122Z,100522.94
2023-05-12T16:42:13.438Z,100519.44
2023-05-12T16:44:44.361Z,100506.28
2023-05-12T16:47:14.918Z,100508.09
2023-05-12T16:49:45.174Z,100509.06
2023-05-12T16:52:16.360Z,100509.06
2023-05-12T16:54:46.899Z,100504.75
2023-05-12T16:57:17.445Z,100504.75
2023-05-12T16:59:49.552Z,100506.41
2023-05-12T17:02:20.387Z,100501.28
2023-05-12T17:04:50.760Z,100498.78
2023-05-12T17:07:21.225Z,100488.25
2023-05-12T17:09:51.821Z,100500.56
2023-05-12T17:12:22.364Z,100497.09
2023-05-12T17:15:03.370Z,100492.78
2023-05-12T17:17:34.460Z,100492.78
2023-05-12T17:20:07.552Z,100496.41
2023-05-12T17:22:42.963Z,100481.56
2023-05-12T17:25:14.149Z,100486.84
2023-05-12T17:27:44.558Z,100490.28
2023-05-12T17:30:15.315Z,100482.50
2023-05-12T17:32:46.202Z,100480.84
2023-05-12T17:35:16.769Z,100489.69
2023-05-12T17:37:47.184Z,100473.06
2023-05-12T17:40:19.485Z,100473.06
2023-05-12T17:42:51.697Z,100467.94
2023-05-12T17:45:22.937Z,100473.06
2023-05-12T17:47:53.823Z,100480.13
2023-05-12T17:50:24.322Z,100471.50
2023-05-12T17:52:57.079Z,100478.47
2023-05-12T17:55:27.552Z,100470.69
2023-05-12T17:57:58.186Z,100475.13
2023-05-12T18:00:28.470Z,100473.44
2023-05-12T18:02:59.688Z,100464.72
2023-05-12T18:05:30.417Z,100468.19
2023-05-12T18:08:00.812Z,100464.00
2023-05-12T18:10:31.278Z,100456.97
2023-05-12T18:13:01.710Z,100459.59
2023-05-12T18:15:32.368Z,100453.59
2023-05-12T18:18:03.038Z,100456.09
2023-05-12T18:20:33.654Z,100459.69
2023-05-12T18:23:04.513Z,100455.41
2023-05-12T18:25:34.893Z,100464.25
2023-05-12T18:28:05.356Z,100458.16
2023-05-12T18:30:35.825Z,100453.84
2023-05-12T18:33:06.394Z,100452.06
2023-05-12T18:35:36.928Z,100460.91
2023-05-12T18:38:08.610Z,100462.69
2023-05-12T18:40:39.930Z,100467.00
2023-05-12T18:43:10.355Z,100475.03
2023-05-12T18:45:41.119Z,100475.16
2023-05-12T18:48:11.656Z,100470.72
2023-05-12T18:50:42.035Z,100470.03
2023-05-12T18:53:12.468Z,100476.97
2023-05-12T18:55:43.117Z,100470.03
2023-05-12T18:58:13.520Z,100470.03
2023-05-12T19:00:44.001Z,100474.44
2023-05-12T19:03:14.688Z,100471.94
2023-05-12T19:05:46.839Z,100472.75
2023-05-12T19:08:19.125Z,100469.44
2023-05-12T19:10:50.488Z,100478.16
2023-05-12T19:13:21.070Z,100466.81
2023-05-12T19:16:09.638Z,100459.84
2023-05-12T19:18:40.267Z,100458.16
2023-05-12T19:21:11.043Z,100459.94
2023-05-12T19:23:41.411Z,100453.84
2023-05-12T19:26:12.523Z,100446.78
2023-05-12T19:28:43.185Z,100449.56
2023-05-12T19:31:13.757Z,100453.97
2023-05-12T19:33:44.407Z,100442.63
2023-05-12T19:36:14.923Z,100445.25
2023-05-12T19:39:03.441Z,100446.19
2023-05-12T19:41:33.804Z,100438.44
2023-05-12T19:44:04.462Z,100443.81
2023-05-12T19:46:34.979Z,100440.38
2023-05-12T19:49:05.831Z,100441.19
2023-05-12T19:51:36.454Z,100436.91
2023-05-12T19:54:08.091Z,100437.72
2023-05-12T19:56:38.946Z,100437.84
2023-05-12T19:59:09.588Z,100430.91
2023-05-12T20:01:40.317Z,100441.44
2023-05-12T20:04:11.032Z,100439.78
2023-05-12T20:06:42.011Z,100446.00
2023-05-12T20:09:12.808Z,100454.84
2023-05-12T20:11:43.178Z,100435.72
2023-05-12T20:14:13.635Z,100445.25
2023-05-12T20:16:44.088Z,100443.59
2023-05-12T20:19:14.707Z,100445.41
2023-05-12T20:21:45.228Z,100452.47
2023-05-12T20:24:15.762Z,100455.91
2023-05-12T20:26:46.253Z,100451.75
2023-05-12T20:29:22.252Z,100451.75
2023-05-12T20:31:53.713Z,100453.53
2023-05-12T20:34:24.759Z,100456.28
2023-05-12T20:36:55.185Z,100453.66
2023-05-12T20:39:25.786Z,100459.75
2023-05-12T20:41:56.211Z,100446.72
2023-05-12T20:44:28.648Z,100448.53
2023-05-12T20:46:59.113Z,100452.97
2023-05-12T20:49:29.632Z,100455.69
2023-05-12T20:52:00.379Z,100448.63
2023-05-12T20:54:30.753Z,100439.91
2023-05-12T20:57:01.161Z,100444.34
2023-05-12T20:59:31.595Z,100444.47
2023-05-12T21:02:02.242Z,100442.81
2023-05-12T21:04:32.729Z,100441.00
2023-05-12T21:07:03.176Z,100451.53
2023-05-12T21:09:33.543Z,100454.25
2023-05-12T21:12:03.945Z,100452.59
2023-05-12T21:14:43.228Z,100449.97
2023-05-12T21:17:14.472Z,100447.47
2023-05-12T21:19:45.599Z,100444.84
2023-05-12T21:22:16.275Z,100440.53
2023-05-12T21:24:46.944Z,100437.91
2023-05-12T21:27:17.366Z,100447.69
2023-05-12T21:30:06.446Z,100442.44
2023-05-12T21:32:37.061Z,100450.31
2023-05-12T21:35:08.608Z,100452.97
2023-05-12T21:37:39.332Z,100452.13
2023-05-12T21:40:10.428Z,100451.28
2023-05-12T21:42:40.902Z,100450.47
2023-05-12T21:45:11.862Z,100452.25
2023-05-12T21:47:42.465Z,100454.06
2023-05-12T21:50:13.210Z,100461.09
2023-05-12T21:52:43.576Z,100462.91
2023-05-12T21:55:14.263Z,100464.66
2023-05-12T21:57:44.756Z,100465.53
2023-05-12T22:00:16.589Z,100467.31
2023-05-12T22:02:47.244Z,100470.91
2023-05-12T22:05:17.761Z,100467.44
2023-05-12T22:07:48.159Z,100463.97
2023-05-12T22:10:18.767Z,100468.41
2023-05-12T22:12:49.227Z,100466.59
2023-05-12T22:15:20.232Z,100465.75
2023-05-12T22:17:51.042Z,100467.56
2023-05-12T22:20:21.750Z,100470.19
2023-05-12T22:23:10.115Z,100473.66
2023-05-12T22:25:40.744Z,100469.34
2023-05-12T22:28:11.223Z,100472.81
2023-05-12T22:30:43.119Z,100473.78
2023-05-12T22:33:13.575Z,100474.72
2023-05-12T22:35:44.014Z,100466.81
2023-05-12T22:38:14.569Z,100466.00
2023-05-12T22:40:45.146Z,100478.31
2023-05-12T22:43:15.767Z,100475.69
2023-05-12T22:45:46.478Z,100478.31
2023-05-12T22:48:17.176Z,100472.22
2023-05-12T22:50:47.874Z,100475.69
2023-05-12T22:53:18.304Z,100467.78
2023-05-12T22:55:48.750Z,100474.84
2023-05-12T22:58:19.147Z,100464.47
2023-05-12T23:00:49.660Z,100465.28
2023-05-12T23:03:20.121Z,100467.94
2023-05-12T23:05:50.572Z,100470.56
2023-05-12T23:08:21.016Z,100460.88
2023-05-12T23:10:51.367Z,100461.69
2023-05-12T23:13:21.834Z,100463.50
2023-05-12T23:15:52.183Z,100466.13
2023-05-12T23:18:22.959Z,100461.69
2023-05-12T23:20:53.628Z,100464.34
2023-05-12T23:23:23.866Z,100463.50
2023-05-12T23:25:54.517Z,100474.00
2023-05-12T23:28:25.027Z,100470.41
2023-05-12T23:30:55.396Z,100464.34
2023-05-12T23:33:25.913Z,100461.69
2023-05-12T23:35:56.487Z,100468.75
2023-05-12T23:38:27.223Z,100461.84
2023-05-12T23:40:57.688Z,100468.75
2023-05-12T23:43:28.465Z,100468.88
2023-05-12T23:45:59.096Z,100474.00
2023-05-12T23:48:30.057Z,100468.75
2023-05-12T23:51:18.291Z,100474.00
2023-05-12T23:53:48.748Z,100478.44
2023-05-12T23:56:19.240Z,100484.53
2023-05-12T23:58:50.525Z,100476.66
